sensor_id;sensor_type;location;lat;lon;timestamp;P1;durP1;ratioP1;P2;durP2;ratioP2
3487;SDS011;38546;48.170;11.724;2023-10-19T00:03:07;37.63;;;23.50;;
3487;SDS011;38546;48.170;11.724;2023-10-19T00:05:56;44.53;;;24.17;;
3487;SDS011;38546;48.170;11.724;2023-10-19T00:08:46;44.40;;;26.10;;
3487;SDS011;38546;48.170;11.724;2023-10-19T00:11:36;47.13;;;27.70;;
3487;SDS011;38546;48.170;11.724;2023-10-19T00:14:29;51.13;;;27.30;;
3487;SDS011;38546;48.170;11.724;2023-10-19T00:17:21;51.40;;;29.30;;
3487;SDS011;38546;48.170;11.724;2023-10-19T00:20:10;47.93;;;24.50;;
3487;SDS011;38546;48.170;11.724;2023-10-19T00:23:19;48.13;;;26.07;;
3487;SDS011;38546;48.170;11.724;2023-10-19T00:26:17;43.73;;;26.50;;
3487;SDS011;38546;48.170;11.724;2023-10-19T00:29:08;49.63;;;26.27;;
3487;SDS011;38546;48.170;11.724;2023-10-19T00:32:19;63.27;;;30.03;;
3487;SDS011;38546;48.170;11.724;2023-10-19T00:35:13;59.10;;;27.67;;
3487;SDS011;38546;48.170;11.724;2023-10-19T00:38:24;50.20;;;28.00;;
3487;SDS011;38546;48.170;11.724;2023-10-19T00:41:27;54.60;;;29.83;;
3487;SDS011;38546;48.170;11.724;2023-10-19T00:44:20;51.40;;;28.23;;
3487;SDS011;38546;48.170;11.724;2023-10-19T00:47:21;44.77;;;25.47;;
3487;SDS011;38546;48.170;11.724;2023-10-19T00:50:13;42.13;;;25.17;;
3487;SDS011;38546;48.170;11.724;2023-10-19T00:53:05;50.93;;;25.20;;
3487;SDS011;38546;48.170;11.724;2023-10-19T00:55:57;50.03;;;27.30;;
3487;SDS011;38546;48.170;11.724;2023-10-19T00:58:49;52.50;;;29.63;;
3487;SDS011;38546;48.170;11.724;2023-10-19T01:01:42;58.03;;;29.40;;
3487;SDS011;38546;48.170;11.724;2023-10-19T01:04:33;53.33;;;27.53;;
3487;SDS011;38546;48.170;11.724;2023-10-19T01:07:23;49.27;;;27.10;;
3487;SDS011;38546;48.170;11.724;2023-10-19T01:10:17;42.50;;;25.00;;
3487;SDS011;38546;48.170;11.724;2023-10-19T01:13:09;39.23;;;23.57;;
3487;SDS011;38546;48.170;11.724;2023-10-19T01:16:00;44.43;;;25.07;;
3487;SDS011;38546;48.170;11.724;2023-10-19T01:18:50;43.83;;;25.90;;
3487;SDS011;38546;48.170;11.724;2023-10-19T01:21:44;47.00;;;25.23;;
3487;SDS011;38546;48.170;11.724;2023-10-19T01:24:40;46.13;;;24.20;;
3487;SDS011;38546;48.170;11.724;2023-10-19T01:27:29;56.20;;;29.00;;
3487;SDS011;38546;48.170;11.724;2023-10-19T01:30:20;52.63;;;26.17;;
3487;SDS011;38546;48.170;11.724;2023-10-19T01:33:09;45.70;;;25.73;;
3487;SDS011;38546;48.170;11.724;2023-10-19T01:36:04;48.23;;;27.87;;
3487;SDS011;38546;48.170;11.724;2023-10-19T01:38:59;67.70;;;33.40;;
3487;SDS011;38546;48.170;11.724;2023-10-19T01:41:58;66.23;;;33.27;;
3487;SDS011;38546;48.170;11.724;2023-10-19T01:44:47;56.77;;;30.13;;
3487;SDS011;38546;48.170;11.724;2023-10-19T01:47:37;58.87;;;31.70;;
3487;SDS011;38546;48.170;11.724;2023-10-19T01:50:29;61.70;;;33.70;;
3487;SDS011;38546;48.170;11.724;2023-10-19T01:53:18;56.97;;;30.27;;
3487;SDS011;38546;48.170;11.724;2023-10-19T01:56:14;51.03;;;28.73;;
3487;SDS011;38546;48.170;11.724;2023-10-19T01:59:05;52.20;;;30.37;;
3487;SDS011;38546;48.170;11.724;2023-10-19T02:01:56;60.33;;;31.13;;
3487;SDS011;38546;48.170;11.724;2023-10-19T02:04:46;53.97;;;30.20;;
3487;SDS011;38546;48.170;11.724;2023-10-19T02:07:38;59.70;;;30.43;;
3487;SDS011;38546;48.170;11.724;2023-10-19T02:10:27;59.83;;;29.93;;
3487;SDS011;38546;48.170;11.724;2023-10-19T02:13:18;57.13;;;30.70;;
3487;SDS011;38546;48.170;11.724;2023-10-19T02:16:10;53.73;;;28.43;;
3487;SDS011;38546;48.170;11.724;2023-10-19T02:18:59;46.73;;;26.30;;
3487;SDS011;38546;48.170;11.724;2023-10-19T02:21:51;49.07;;;26.40;;
3487;SDS011;38546;48.170;11.724;2023-10-19T02:24:44;53.33;;;29.60;;
3487;SDS011;38546;48.170;11.724;2023-10-19T02:27:33;55.17;;;28.00;;
3487;SDS011;38546;48.170;11.724;2023-10-19T02:30:22;52.10;;;30.43;;
3487;SDS011;38546;48.170;11.724;2023-10-19T02:33:13;60.67;;;30.20;;
3487;SDS011;38546;48.170;11.724;2023-10-19T02:36:02;52.70;;;29.10;;
3487;SDS011;38546;48.170;11.724;2023-10-19T02:38:52;48.90;;;26.73;;
3487;SDS011;38546;48.170;11.724;2023-10-19T02:41:43;52.30;;;28.27;;
3487;SDS011;38546;48.170;11.724;2023-10-19T02:44:37;49.17;;;28.53;;
3487;SDS011;38546;48.170;11.724;2023-10-19T02:47:27;52.57;;;26.97;;
3487;SDS011;38546;48.170;11.724;2023-10-19T02:50:18;52.77;;;27.13;;
3487;SDS011;38546;48.170;11.724;2023-10-19T02:53:11;48.60;;;26.63;;
3487;SDS011;38546;48.170;11.724;2023-10-19T02:56:09;56.80;;;30.13;;
3487;SDS011;38546;48.170;11.724;2023-10-19T02:59:01;55.40;;;27.50;;
3487;SDS011;38546;48.170;11.724;2023-10-19T03:01:58;52.47;;;28.60;;
3487;SDS011;38546;48.170;11.724;2023-10-19T03:05:00;45.63;;;25.90;;
3487;SDS011;38546;48.170;11.724;2023-10-19T03:07:58;47.87;;;27.60;;
3487;SDS011;38546;48.170;11.724;2023-10-19T03:10:47;46.07;;;27.30;;
3487;SDS011;38546;48.170;11.724;2023-10-19T03:13:52;48.30;;;28.40;;
3487;SDS011;38546;48.170;11.724;2023-10-19T03:16:42;47.77;;;27.90;;
3487;SDS011;38546;48.170;11.724;2023-10-19T03:19:32;49.20;;;28.20;;
3487;SDS011;38546;48.170;11.724;2023-10-19T03:22:23;48.47;;;26.87;;
3487;SDS011;38546;48.170;11.724;2023-10-19T03:25:13;45.90;;;26.37;;
3487;SDS011;38546;48.170;11.724;2023-10-19T03:28:22;53.10;;;28.67;;
3487;SDS011;38546;48.170;11.724;2023-10-19T03:31:14;51.23;;;27.33;;
3487;SDS011;38546;48.170;11.724;2023-10-19T03:34:07;46.47;;;25.47;;
3487;SDS011;38546;48.170;11.724;2023-10-19T03:36:56;50.63;;;26.20;;
3487;SDS011;38546;48.170;11.724;2023-10-19T03:39:45;49.17;;;27.33;;
3487;SDS011;38546;48.170;11.724;2023-10-19T03:42:36;50.20;;;28.20;;
3487;SDS011;38546;48.170;11.724;2023-10-19T03:45:29;57.30;;;26.80;;
3487;SDS011;38546;48.170;11.724;2023-10-19T03:48:22;48.50;;;26.23;;
3487;SDS011;38546;48.170;11.724;2023-10-19T03:51:23;46.20;;;25.80;;
3487;SDS011;38546;48.170;11.724;2023-10-19T03:54:15;49.07;;;25.37;;
3487;SDS011;38546;48.170;11.724;2023-10-19T03:57:11;50.00;;;26.73;;
3487;SDS011;38546;48.170;11.724;2023-10-19T04:00:13;48.23;;;27.33;;
3487;SDS011;38546;48.170;11.724;2023-10-19T04:03:04;44.73;;;25.80;;
3487;SDS011;38546;48.170;11.724;2023-10-19T04:05:53;40.40;;;24.47;;
3487;SDS011;38546;48.170;11.724;2023-10-19T04:08:43;46.40;;;25.53;;
3487;SDS011;38546;48.170;11.724;2023-10-19T04:11:34;46.80;;;26.20;;
3487;SDS011;38546;48.170;11.724;2023-10-19T04:14:36;40.30;;;24.80;;
3487;SDS011;38546;48.170;11.724;2023-10-19T04:17:27;44.53;;;25.20;;
3487;SDS011;38546;48.170;11.724;2023-10-19T04:20:16;43.77;;;24.50;;
3487;SDS011;38546;48.170;11.724;2023-10-19T04:23:06;42.83;;;24.00;;
3487;SDS011;38546;48.170;11.724;2023-10-19T04:25:59;40.17;;;23.97;;
3487;SDS011;38546;48.170;11.724;2023-10-19T04:28:53;45.17;;;23.50;;
3487;SDS011;38546;48.170;11.724;2023-10-19T04:31:44;40.53;;;23.23;;
3487;SDS011;38546;48.170;11.724;2023-10-19T04:34:43;49.90;;;25.47;;
3487;SDS011;38546;48.170;11.724;2023-10-19T04:37:33;43.43;;;22.93;;
3487;SDS011;38546;48.170;11.724;2023-10-19T04:40:22;42.17;;;24.10;;
3487;SDS011;38546;48.170;11.724;2023-10-19T04:43:12;42.23;;;22.90;;
3487;SDS011;38546;48.170;11.724;2023-10-19T04:46:03;44.43;;;25.43;;
3487;SDS011;38546;48.170;11.724;2023-10-19T04:49:01;42.40;;;23.73;;
3487;SDS011;38546;48.170;11.724;2023-10-19T04:51:52;32.67;;;21.13;;
3487;SDS011;38546;48.170;11.724;2023-10-19T04:54:41;36.80;;;22.60;;
3487;SDS011;38546;48.170;11.724;2023-10-19T04:57:30;39.80;;;22.40;;
3487;SDS011;38546;48.170;11.724;2023-10-19T05:00:19;35.73;;;22.00;;
3487;SDS011;38546;48.170;11.724;2023-10-19T05:03:10;35.67;;;21.87;;
3487;SDS011;38546;48.170;11.724;2023-10-19T05:06:04;36.43;;;22.03;;
3487;SDS011;38546;48.170;11.724;2023-10-19T05:08:54;36.33;;;21.10;;
3487;SDS011;38546;48.170;11.724;2023-10-19T05:11:43;36.70;;;22.00;;
3487;SDS011;38546;48.170;11.724;2023-10-19T05:14:38;34.53;;;22.40;;
3487;SDS011;38546;48.170;11.724;2023-10-19T05:17:28;33.07;;;21.87;;
3487;SDS011;38546;48.170;11.724;2023-10-19T05:20:17;36.37;;;21.37;;
3487;SDS011;38546;48.170;11.724;2023-10-19T05:23:07;31.93;;;20.80;;
3487;SDS011;38546;48.170;11.724;2023-10-19T05:26:01;30.33;;;20.23;;
3487;SDS011;38546;48.170;11.724;2023-10-19T05:28:53;40.13;;;20.97;;
3487;SDS011;38546;48.170;11.724;2023-10-19T05:31:43;36.27;;;22.03;;
3487;SDS011;38546;48.170;11.724;2023-10-19T05:34:31;32.30;;;19.57;;
3487;SDS011;38546;48.170;11.724;2023-10-19T05:37:23;32.23;;;19.63;;
3487;SDS011;38546;48.170;11.724;2023-10-19T05:40:14;30.90;;;20.87;;
3487;SDS011;38546;48.170;11.724;2023-10-19T05:43:03;37.37;;;20.83;;
3487;SDS011;38546;48.170;11.724;2023-10-19T05:45:52;32.77;;;21.53;;
3487;SDS011;38546;48.170;11.724;2023-10-19T05:48:42;33.27;;;19.80;;
3487;SDS011;38546;48.170;11.724;2023-10-19T05:51:31;35.83;;;20.97;;
3487;SDS011;38546;48.170;11.724;2023-10-19T05:54:21;36.63;;;21.50;;
3487;SDS011;38546;48.170;11.724;2023-10-19T05:57:12;31.80;;;19.10;;
3487;SDS011;38546;48.170;11.724;2023-10-19T06:00:01;34.80;;;20.43;;
3487;SDS011;38546;48.170;11.724;2023-10-19T06:02:53;35.77;;;19.43;;
3487;SDS011;38546;48.170;11.724;2023-10-19T06:05:42;34.67;;;20.70;;
3487;SDS011;38546;48.170;11.724;2023-10-19T06:08:31;31.10;;;19.10;;
3487;SDS011;38546;48.170;11.724;2023-10-19T06:11:20;31.57;;;19.10;;
3487;SDS011;38546;48.170;11.724;2023-10-19T06:14:10;35.90;;;20.30;;
3487;SDS011;38546;48.170;11.724;2023-10-19T06:16:59;31.20;;;19.97;;
3487;SDS011;38546;48.170;11.724;2023-10-19T06:19:49;31.20;;;19.70;;
3487;SDS011;38546;48.170;11.724;2023-10-19T06:22:39;31.77;;;19.37;;
3487;SDS011;38546;48.170;11.724;2023-10-19T06:25:28;31.77;;;20.70;;
3487;SDS011;38546;48.170;11.724;2023-10-19T06:28:17;31.80;;;19.93;;
3487;SDS011;38546;48.170;11.724;2023-10-19T06:31:06;35.13;;;20.30;;
3487;SDS011;38546;48.170;11.724;2023-10-19T06:33:56;34.03;;;18.83;;
3487;SDS011;38546;48.170;11.724;2023-10-19T06:36:49;30.33;;;18.10;;
3487;SDS011;38546;48.170;11.724;2023-10-19T06:39:39;29.20;;;19.57;;
3487;SDS011;38546;48.170;11.724;2023-10-19T06:42:31;26.57;;;16.83;;
3487;SDS011;38546;48.170;11.724;2023-10-19T06:45:20;33.03;;;20.47;;
3487;SDS011;38546;48.170;11.724;2023-10-19T06:48:10;27.40;;;18.23;;
3487;SDS011;38546;48.170;11.724;2023-10-19T06:51:00;31.37;;;20.67;;
3487;SDS011;38546;48.170;11.724;2023-10-19T06:53:49;28.93;;;18.20;;
3487;SDS011;38546;48.170;11.724;2023-10-19T06:56:39;25.83;;;18.27;;
3487;SDS011;38546;48.170;11.724;2023-10-19T06:59:28;23.47;;;18.30;;
3487;SDS011;38546;48.170;11.724;2023-10-19T07:02:18;25.50;;;18.67;;
3487;SDS011;38546;48.170;11.724;2023-10-19T07:05:15;30.33;;;18.90;;
3487;SDS011;38546;48.170;11.724;2023-10-19T07:08:10;29.23;;;18.70;;
3487;SDS011;38546;48.170;11.724;2023-10-19T07:10:59;28.17;;;17.90;;
3487;SDS011;38546;48.170;11.724;2023-10-19T07:13:48;25.40;;;16.60;;
3487;SDS011;38546;48.170;11.724;2023-10-19T07:16:41;21.97;;;15.57;;
3487;SDS011;38546;48.170;11.724;2023-10-19T07:19:30;22.90;;;15.40;;
3487;SDS011;38546;48.170;11.724;2023-10-19T07:22:19;29.90;;;15.90;;
3487;SDS011;38546;48.170;11.724;2023-10-19T07:25:11;21.30;;;14.00;;
3487;SDS011;38546;48.170;11.724;2023-10-19T07:28:02;24.30;;;16.20;;
3487;SDS011;38546;48.170;11.724;2023-10-19T07:30:54;21.53;;;14.37;;
3487;SDS011;38546;48.170;11.724;2023-10-19T07:33:44;20.87;;;14.20;;
3487;SDS011;38546;48.170;11.724;2023-10-19T07:36:34;22.90;;;15.03;;
3487;SDS011;38546;48.170;11.724;2023-10-19T07:39:26;24.07;;;14.83;;
3487;SDS011;38546;48.170;11.724;2023-10-19T07:42:17;22.83;;;15.93;;
3487;SDS011;38546;48.170;11.724;2023-10-19T07:45:06;29.17;;;18.37;;
3487;SDS011;38546;48.170;11.724;2023-10-19T07:48:00;29.90;;;18.60;;
3487;SDS011;38546;48.170;11.724;2023-10-19T07:50:55;35.03;;;22.03;;
3487;SDS011;38546;48.170;11.724;2023-10-19T07:53:44;41.27;;;23.67;;
3487;SDS011;38546;48.170;11.724;2023-10-19T07:56:34;58.23;;;26.93;;
3487;SDS011;38546;48.170;11.724;2023-10-19T07:59:22;76.27;;;35.20;;
3487;SDS011;38546;48.170;11.724;2023-10-19T08:02:12;111.60;;;46.70;;
3487;SDS011;38546;48.170;11.724;2023-10-19T08:05:02;110.10;;;47.43;;
3487;SDS011;38546;48.170;11.724;2023-10-19T08:07:52;98.07;;;42.83;;
3487;SDS011;38546;48.170;11.724;2023-10-19T08:10:41;71.53;;;33.10;;
3487;SDS011;38546;48.170;11.724;2023-10-19T08:13:30;63.03;;;30.70;;
3487;SDS011;38546;48.170;11.724;2023-10-19T08:16:21;55.37;;;28.23;;
3487;SDS011;38546;48.170;11.724;2023-10-19T08:19:11;57.30;;;26.13;;
3487;SDS011;38546;48.170;11.724;2023-10-19T08:22:01;54.00;;;24.80;;
3487;SDS011;38546;48.170;11.724;2023-10-19T08:24:50;49.10;;;24.53;;
3487;SDS011;38546;48.170;11.724;2023-10-19T08:27:41;53.47;;;22.77;;
3487;SDS011;38546;48.170;11.724;2023-10-19T08:30:33;43.63;;;20.20;;
3487;SDS011;38546;48.170;11.724;2023-10-19T08:33:24;28.87;;;15.80;;
3487;SDS011;38546;48.170;11.724;2023-10-19T08:36:17;23.27;;;13.20;;
3487;SDS011;38546;48.170;11.724;2023-10-19T08:39:10;14.23;;;9.50;;
3487;SDS011;38546;48.170;11.724;2023-10-19T08:42:02;11.40;;;7.97;;
3487;SDS011;38546;48.170;11.724;2023-10-19T08:44:52;11.10;;;7.90;;
3487;SDS011;38546;48.170;11.724;2023-10-19T08:47:58;9.80;;;8.20;;
3487;SDS011;38546;48.170;11.724;2023-10-19T08:50:49;8.77;;;6.47;;
3487;SDS011;38546;48.170;11.724;2023-10-19T08:53:40;13.67;;;6.40;;
3487;SDS011;38546;48.170;11.724;2023-10-19T08:56:30;11.63;;;6.33;;
3487;SDS011;38546;48.170;11.724;2023-10-19T08:59:21;16.57;;;6.97;;
3487;SDS011;38546;48.170;11.724;2023-10-19T09:02:11;9.63;;;6.47;;
3487;SDS011;38546;48.170;11.724;2023-10-19T09:05:07;7.83;;;6.70;;
3487;SDS011;38546;48.170;11.724;2023-10-19T09:07:57;9.50;;;7.13;;
3487;SDS011;38546;48.170;11.724;2023-10-19T09:10:49;14.60;;;8.30;;
3487;SDS011;38546;48.170;11.724;2023-10-19T09:13:48;20.50;;;10.50;;
3487;SDS011;38546;48.170;11.724;2023-10-19T09:16:53;14.13;;;8.80;;
3487;SDS011;38546;48.170;11.724;2023-10-19T09:19:45;12.77;;;9.60;;
3487;SDS011;38546;48.170;11.724;2023-10-19T09:22:37;14.70;;;9.80;;
3487;SDS011;38546;48.170;11.724;2023-10-19T09:25:33;10.50;;;8.50;;
3487;SDS011;38546;48.170;11.724;2023-10-19T09:28:24;10.37;;;8.80;;
3487;SDS011;38546;48.170;11.724;2023-10-19T09:31:14;11.07;;;8.90;;
3487;SDS011;38546;48.170;11.724;2023-10-19T09:34:04;9.80;;;8.20;;
3487;SDS011;38546;48.170;11.724;2023-10-19T09:36:59;12.93;;;8.60;;
3487;SDS011;38546;48.170;11.724;2023-10-19T09:39:49;11.43;;;8.63;;
3487;SDS011;38546;48.170;11.724;2023-10-19T09:42:43;13.50;;;7.93;;
3487;SDS011;38546;48.170;11.724;2023-10-19T09:45:37;8.93;;;8.03;;
3487;SDS011;38546;48.170;11.724;2023-10-19T09:48:31;11.87;;;8.23;;
3487;SDS011;38546;48.170;11.724;2023-10-19T09:51:24;13.17;;;8.90;;
3487;SDS011;38546;48.170;11.724;2023-10-19T09:54:17;13.03;;;9.50;;
3487;SDS011;38546;48.170;11.724;2023-10-19T09:57:17;12.20;;;9.40;;
3487;SDS011;38546;48.170;11.724;2023-10-19T10:00:14;12.80;;;8.60;;
3487;SDS011;38546;48.170;11.724;2023-10-19T10:03:05;12.67;;;9.60;;
3487;SDS011;38546;48.170;11.724;2023-10-19T10:05:54;13.37;;;9.73;;
3487;SDS011;38546;48.170;11.724;2023-10-19T10:08:44;12.90;;;11.10;;
3487;SDS011;38546;48.170;11.724;2023-10-19T10:11:35;16.77;;;12.57;;
3487;SDS011;38546;48.170;11.724;2023-10-19T10:14:24;16.93;;;11.30;;
3487;SDS011;38546;48.170;11.724;2023-10-19T10:17:17;15.17;;;11.57;;
3487;SDS011;38546;48.170;11.724;2023-10-19T10:23:30;17.07;;;11.80;;
3487;SDS011;38546;48.170;11.724;2023-10-19T10:26:31;14.90;;;10.77;;
3487;SDS011;38546;48.170;11.724;2023-10-19T10:29:59;14.27;;;10.23;;
3487;SDS011;38546;48.170;11.724;2023-10-19T10:32:55;17.33;;;11.70;;
3487;SDS011;38546;48.170;11.724;2023-10-19T10:35:53;19.43;;;10.27;;
3487;SDS011;38546;48.170;11.724;2023-10-19T10:38:43;15.47;;;10.70;;
3487;SDS011;38546;48.170;11.724;2023-10-19T10:41:38;11.80;;;9.20;;
3487;SDS011;38546;48.170;11.724;2023-10-19T10:44:38;13.23;;;9.30;;
3487;SDS011;38546;48.170;11.724;2023-10-19T10:47:35;11.77;;;9.67;;
3487;SDS011;38546;48.170;11.724;2023-10-19T10:50:26;7.73;;;7.00;;
3487;SDS011;38546;48.170;11.724;2023-10-19T10:53:19;12.20;;;7.97;;
3487;SDS011;38546;48.170;11.724;2023-10-19T10:56:14;13.70;;;9.20;;
3487;SDS011;38546;48.170;11.724;2023-10-19T10:59:11;9.10;;;8.20;;
3487;SDS011;38546;48.170;11.724;2023-10-19T11:02:01;9.13;;;7.37;;
3487;SDS011;38546;48.170;11.724;2023-10-19T11:05:07;9.33;;;8.33;;
3487;SDS011;38546;48.170;11.724;2023-10-19T11:11:24;8.70;;;7.90;;
3487;SDS011;38546;48.170;11.724;2023-10-19T11:14:14;12.43;;;8.13;;
3487;SDS011;38546;48.170;11.724;2023-10-19T11:17:13;14.37;;;9.20;;
3487;SDS011;38546;48.170;11.724;2023-10-19T11:20:04;11.60;;;9.30;;
3487;SDS011;38546;48.170;11.724;2023-10-19T11:22:55;12.43;;;8.87;;
3487;SDS011;38546;48.170;11.724;2023-10-19T11:25:45;14.10;;;10.40;;
3487;SDS011;38546;48.170;11.724;2023-10-19T11:28:35;12.00;;;9.30;;
3487;SDS011;38546;48.170;11.724;2023-10-19T11:31:31;10.77;;;9.67;;
3487;SDS011;38546;48.170;11.724;2023-10-19T11:34:26;10.87;;;9.03;;
3487;SDS011;38546;48.170;11.724;2023-10-19T11:37:17;9.60;;;7.17;;
3487;SDS011;38546;48.170;11.724;2023-10-19T11:40:07;9.03;;;7.10;;
3487;SDS011;38546;48.170;11.724;2023-10-19T11:42:58;11.50;;;8.30;;
3487;SDS011;38546;48.170;11.724;2023-10-19T11:45:49;10.53;;;8.03;;
3487;SDS011;38546;48.170;11.724;2023-10-19T11:48:40;11.67;;;8.60;;
3487;SDS011;38546;48.170;11.724;2023-10-19T11:51:31;11.30;;;10.10;;
3487;SDS011;38546;48.170;11.724;2023-10-19T11:54:21;13.73;;;9.10;;
3487;SDS011;38546;48.170;11.724;2023-10-19T11:57:10;8.10;;;7.30;;
3487;SDS011;38546;48.170;11.724;2023-10-19T12:00:01;12.30;;;7.40;;
3487;SDS011;38546;48.170;11.724;2023-10-19T12:02:58;10.17;;;8.10;;
3487;SDS011;38546;48.170;11.724;2023-10-19T12:05:47;12.77;;;8.53;;
3487;SDS011;38546;48.170;11.724;2023-10-19T12:08:37;15.20;;;9.63;;
3487;SDS011;38546;48.170;11.724;2023-10-19T12:11:28;11.00;;;9.30;;
3487;SDS011;38546;48.170;11.724;2023-10-19T12:14:18;19.23;;;9.53;;
3487;SDS011;38546;48.170;11.724;2023-10-19T12:17:10;12.50;;;9.80;;
3487;SDS011;38546;48.170;11.724;2023-10-19T12:20:00;11.93;;;9.60;;
3487;SDS011;38546;48.170;11.724;2023-10-19T12:22:49;15.10;;;9.20;;
3487;SDS011;38546;48.170;11.724;2023-10-19T12:25:42;14.20;;;9.00;;
3487;SDS011;38546;48.170;11.724;2023-10-19T12:28:32;9.17;;;8.20;;
3487;SDS011;38546;48.170;11.724;2023-10-19T12:31:21;13.50;;;8.73;;
3487;SDS011;38546;48.170;11.724;2023-10-19T12:34:12;8.80;;;7.70;;
3487;SDS011;38546;48.170;11.724;2023-10-19T12:37:01;10.70;;;8.60;;
3487;SDS011;38546;48.170;11.724;2023-10-19T12:39:52;10.00;;;8.47;;
3487;SDS011;38546;48.170;11.724;2023-10-19T12:42:43;17.37;;;8.70;;
3487;SDS011;38546;48.170;11.724;2023-10-19T12:45:33;13.50;;;8.30;;
3487;SDS011;38546;48.170;11.724;2023-10-19T12:48:25;11.10;;;8.40;;
3487;SDS011;38546;48.170;11.724;2023-10-19T12:51:22;16.07;;;7.73;;
3487;SDS011;38546;48.170;11.724;2023-10-19T12:54:14;11.30;;;7.40;;
3487;SDS011;38546;48.170;11.724;2023-10-19T12:57:04;11.53;;;6.97;;
3487;SDS011;38546;48.170;11.724;2023-10-19T12:59:55;11.23;;;6.80;;
3487;SDS011;38546;48.170;11.724;2023-10-19T13:02:44;7.60;;;6.47;;
3487;SDS011;38546;48.170;11.724;2023-10-19T13:05:34;9.43;;;6.87;;
3487;SDS011;38546;48.170;11.724;2023-10-19T13:08:25;6.90;;;6.20;;
3487;SDS011;38546;48.170;11.724;2023-10-19T13:11:17;8.20;;;7.17;;
3487;SDS011;38546;48.170;11.724;2023-10-19T13:14:07;10.70;;;6.50;;
3487;SDS011;38546;48.170;11.724;2023-10-19T13:16:57;7.50;;;6.50;;
3487;SDS011;38546;48.170;11.724;2023-10-19T13:19:46;6.00;;;5.20;;
3487;SDS011;38546;48.170;11.724;2023-10-19T13:22:39;14.97;;;6.20;;
3487;SDS011;38546;48.170;11.724;2023-10-19T13:25:30;8.20;;;5.60;;
3487;SDS011;38546;48.170;11.724;2023-10-19T13:28:35;7.60;;;5.50;;
3487;SDS011;38546;48.170;11.724;2023-10-19T13:31:27;7.33;;;5.80;;
3487;SDS011;38546;48.170;11.724;2023-10-19T13:34:16;8.43;;;6.20;;
3487;SDS011;38546;48.170;11.724;2023-10-19T13:37:06;6.90;;;5.60;;
3487;SDS011;38546;48.170;11.724;2023-10-19T13:39:57;10.00;;;6.93;;
3487;SDS011;38546;48.170;11.724;2023-10-19T13:42:47;6.40;;;5.80;;
3487;SDS011;38546;48.170;11.724;2023-10-19T13:45:37;9.43;;;7.20;;
3487;SDS011;38546;48.170;11.724;2023-10-19T13:48:27;9.10;;;6.90;;
3487;SDS011;38546;48.170;11.724;2023-10-19T13:51:17;10.50;;;8.97;;
3487;SDS011;38546;48.170;11.724;2023-10-19T13:54:08;12.50;;;9.90;;
3487;SDS011;38546;48.170;11.724;2023-10-19T13:56:58;14.40;;;10.60;;
3487;SDS011;38546;48.170;11.724;2023-10-19T13:59:47;19.43;;;12.10;;
3487;SDS011;38546;48.170;11.724;2023-10-19T14:02:38;14.00;;;10.50;;
3487;SDS011;38546;48.170;11.724;2023-10-19T14:05:28;23.83;;;13.83;;
3487;SDS011;38546;48.170;11.724;2023-10-19T14:08:18;13.70;;;12.23;;
3487;SDS011;38546;48.170;11.724;2023-10-19T14:11:09;24.57;;;14.90;;
3487;SDS011;38546;48.170;11.724;2023-10-19T14:13:58;21.33;;;14.10;;
3487;SDS011;38546;48.170;11.724;2023-10-19T14:16:48;24.07;;;15.63;;
3487;SDS011;38546;48.170;11.724;2023-10-19T14:19:38;25.90;;;16.40;;
3487;SDS011;38546;48.170;11.724;2023-10-19T14:22:33;19.50;;;14.67;;
3487;SDS011;38546;48.170;11.724;2023-10-19T14:25:25;20.40;;;15.57;;
3487;SDS011;38546;48.170;11.724;2023-10-19T14:28:15;23.00;;;17.27;;
3487;SDS011;38546;48.170;11.724;2023-10-19T14:31:04;18.50;;;15.27;;
3487;SDS011;38546;48.170;11.724;2023-10-19T14:33:56;22.57;;;15.40;;
3487;SDS011;38546;48.170;11.724;2023-10-19T14:36:47;21.23;;;15.33;;
3487;SDS011;38546;48.170;11.724;2023-10-19T14:39:37;20.63;;;15.30;;
3487;SDS011;38546;48.170;11.724;2023-10-19T14:42:26;28.13;;;19.40;;
3487;SDS011;38546;48.170;11.724;2023-10-19T14:45:20;26.50;;;19.00;;
3487;SDS011;38546;48.170;11.724;2023-10-19T14:48:14;25.50;;;19.40;;
3487;SDS011;38546;48.170;11.724;2023-10-19T14:51:04;31.30;;;20.50;;
3487;SDS011;38546;48.170;11.724;2023-10-19T14:53:54;34.00;;;22.70;;
3487;SDS011;38546;48.170;11.724;2023-10-19T14:56:43;34.73;;;21.33;;
3487;SDS011;38546;48.170;11.724;2023-10-19T14:59:32;32.77;;;23.40;;
3487;SDS011;38546;48.170;11.724;2023-10-19T15:02:24;35.20;;;23.73;;
3487;SDS011;38546;48.170;11.724;2023-10-19T15:05:15;37.33;;;23.23;;
3487;SDS011;38546;48.170;11.724;2023-10-19T15:08:06;41.60;;;24.07;;
3487;SDS011;38546;48.170;11.724;2023-10-19T15:10:56;28.67;;;20.40;;
3487;SDS011;38546;48.170;11.724;2023-10-19T15:13:46;41.27;;;26.07;;
3487;SDS011;38546;48.170;11.724;2023-10-19T15:16:35;36.13;;;23.83;;
3487;SDS011;38546;48.170;11.724;2023-10-19T15:19:24;33.87;;;22.40;;
3487;SDS011;38546;48.170;11.724;2023-10-19T15:22:13;33.03;;;22.90;;
3487;SDS011;38546;48.170;11.724;2023-10-19T15:25:05;38.53;;;25.70;;
3487;SDS011;38546;48.170;11.724;2023-10-19T15:27:57;32.60;;;21.90;;
3487;SDS011;38546;48.170;11.724;2023-10-19T15:30:47;36.47;;;24.33;;
3487;SDS011;38546;48.170;11.724;2023-10-19T15:33:36;37.30;;;24.27;;
3487;SDS011;38546;48.170;11.724;2023-10-19T15:36:26;39.60;;;24.80;;
3487;SDS011;38546;48.170;11.724;2023-10-19T15:39:15;30.33;;;20.03;;
3487;SDS011;38546;48.170;11.724;2023-10-19T15:42:06;30.80;;;21.53;;
3487;SDS011;38546;48.170;11.724;2023-10-19T15:44:57;36.37;;;23.83;;
3487;SDS011;38546;48.170;11.724;2023-10-19T15:47:46;30.70;;;20.73;;
3487;SDS011;38546;48.170;11.724;2023-10-19T15:50:37;34.13;;;22.70;;
3487;SDS011;38546;48.170;11.724;2023-10-19T15:53:29;37.20;;;25.50;;
3487;SDS011;38546;48.170;11.724;2023-10-19T15:56:22;30.60;;;22.33;;
3487;SDS011;38546;48.170;11.724;2023-10-19T15:59:15;34.97;;;24.43;;
3487;SDS011;38546;48.170;11.724;2023-10-19T16:02:04;43.77;;;27.33;;
3487;SDS011;38546;48.170;11.724;2023-10-19T16:04:53;36.40;;;24.00;;
3487;SDS011;38546;48.170;11.724;2023-10-19T16:07:42;31.80;;;21.60;;
3487;SDS011;38546;48.170;11.724;2023-10-19T16:10:32;39.70;;;23.30;;
3487;SDS011;38546;48.170;11.724;2023-10-19T16:13:21;39.60;;;24.50;;
3487;SDS011;38546;48.170;11.724;2023-10-19T16:16:10;40.23;;;24.13;;
3487;SDS011;38546;48.170;11.724;2023-10-19T16:19:00;31.40;;;20.80;;
3487;SDS011;38546;48.170;11.724;2023-10-19T16:21:50;34.83;;;23.27;;
3487;SDS011;38546;48.170;11.724;2023-10-19T16:24:40;34.37;;;20.93;;
3487;SDS011;38546;48.170;11.724;2023-10-19T16:27:28;35.07;;;23.70;;
3487;SDS011;38546;48.170;11.724;2023-10-19T16:30:18;33.30;;;21.50;;
3487;SDS011;38546;48.170;11.724;2023-10-19T16:33:08;33.20;;;21.73;;
3487;SDS011;38546;48.170;11.724;2023-10-19T16:35:57;26.33;;;17.73;;
3487;SDS011;38546;48.170;11.724;2023-10-19T16:38:46;30.60;;;17.93;;
3487;SDS011;38546;48.170;11.724;2023-10-19T16:41:35;30.50;;;18.87;;
3487;SDS011;38546;48.170;11.724;2023-10-19T16:44:25;39.40;;;21.70;;
3487;SDS011;38546;48.170;11.724;2023-10-19T16:47:14;28.93;;;17.27;;
3487;SDS011;38546;48.170;11.724;2023-10-19T16:50:04;28.00;;;19.10;;
3487;SDS011;38546;48.170;11.724;2023-10-19T16:52:59;25.07;;;18.00;;
3487;SDS011;38546;48.170;11.724;2023-10-19T16:55:49;24.67;;;18.03;;
3487;SDS011;38546;48.170;11.724;2023-10-19T16:58:38;27.00;;;17.27;;